Time;durP1;ratioP1;P1;durP2;ratioP2;P2;SDS_P1;SDS_P2;PMS_P1;PMS_P2;Temp;Humidity;BMP_temperature;BMP_pressure;BME280_temperature;BME280_humidity;BME280_pressure;Samples;Min_cycle;Max_cycle;Signal;HPM_P1;HPM_P2
2023/06/14 00:01:40;;;;;;;11.50;8.20;;;;;;;16.01;61.27;100433.92;104062;1269;59442;-52
2023/06/14 00:04:08;;;;;;;12.60;8.00;;;;;;;15.96;61.05;100429.22;104309;1273;59964;-54
2023/06/14 00:06:36;;;;;;;13.50;7.60;;;;;;;15.86;60.69;100426.96;104200;1271;62096;-54
2023/06/14 00:09:04;;;;;;;11.60;7.70;;;;;;;15.72;60.69;100427.06;104141;1273;70673;-55
2023/06/14 00:11:32;;;;;;;11.50;8.00;;;;;;;15.63;60.86;100425.69;104136;1270;63743;-54
2023/06/14 00:14:00;;;;;;;11.10;8.10;;;;;;;15.56;61.08;100427.26;104301;1274;59845;-52
2023/06/14 00:16:27;;;;;;;12.10;7.50;;;;;;;15.52;61.13;100426.73;104141;1273;59673;-53
2023/06/14 00:18:56;;;;;;;10.40;7.70;;;;;;;15.50;61.07;100427.11;104439;1271;64128;-53
2023/06/14 00:21:23;;;;;;;10.60;7.40;;;;;;;15.51;61.16;100420.56;104375;1272;60249;-55
2023/06/14 00:23:51;;;;;;;9.70;7.40;;;;;;;15.51;61.08;100425.64;104735;1262;63663;-54
2023/06/14 00:26:18;;;;;;;11.00;10.10;;;;;;;15.50;61.32;100428.74;104996;1262;59712;-53
2023/06/14 00:28:47;;;;;;;9.60;7.30;;;;;;;15.49;61.50;100430.13;104829;1261;59599;-53
2023/06/14 00:31:14;;;;;;;12.90;7.60;;;;;;;15.47;61.44;100424.48;104886;1262;64130;-55
2023/06/14 00:33:42;;;;;;;10.30;7.60;;;;;;;15.43;61.31;100425.35;104711;1261;61343;-54
2023/06/14 00:36:11;;;;;;;10.10;8.20;;;;;;;15.37;61.19;100428.46;104769;1264;62638;-55
2023/06/14 00:38:38;;;;;;;11.40;7.90;;;;;;;15.29;61.39;100424.12;105197;1262;61679;-55
2023/06/14 00:41:08;;;;;;;11.40;7.50;;;;;;;15.28;61.42;100422.77;104584;1267;59752;-53
2023/06/14 00:43:36;;;;;;;13.00;7.40;;;;;;;15.29;61.44;100418.09;104523;1268;64091;-52
2023/06/14 00:46:03;;;;;;;10.00;7.30;;;;;;;15.29;61.58;100414.74;104671;1267;60150;-52
2023/06/14 00:48:31;;;;;;;11.90;7.80;;;;;;;15.25;61.73;100418.15;104943;1262;63865;-53
2023/06/14 00:51:01;;;;;;;9.40;7.70;;;;;;;15.18;61.82;100425.39;105022;1263;60826;-52
2023/06/14 00:53:30;;;;;;;11.40;8.00;;;;;;;15.13;62.02;100426.05;104703;1261;59653;-54
2023/06/14 00:55:58;;;;;;;11.70;8.50;;;;;;;15.10;62.16;100425.78;104685;1263;64082;-54
2023/06/14 00:58:26;;;;;;;12.10;8.00;;;;;;;15.08;62.06;100425.14;104925;1265;61363;-53
2023/06/14 01:00:54;;;;;;;10.80;7.40;;;;;;;15.02;62.07;100426.38;104672;1264;64262;-54
2023/06/14 01:03:22;;;;;;;10.50;7.20;;;;;;;14.98;62.19;100426.96;104712;1262;59699;-54
2023/06/14 01:06:02;;;;;;;12.10;8.30;;;;;;;14.99;62.20;100434.08;104759;1267;59565;-54
2023/06/14 01:08:48;;;;;;;10.10;7.20;;;;;;;15.00;62.29;100428.90;104731;1261;62949;-54
2023/06/14 01:11:23;;;;;;;10.50;8.00;;;;;;;15.01;62.47;100429.33;104791;1267;60841;-55
2023/06/14 01:13:50;;;;;;;9.50;7.80;;;;;;;15.04;62.56;100428.64;104974;1265;62536;-53
2023/06/14 01:16:18;;;;;;;11.00;7.40;;;;;;;15.06;62.57;100429.42;104422;1262;60797;-52
2023/06/14 01:18:49;;;;;;;11.00;8.80;;;;;;;15.08;62.60;100423.70;104503;1263;59822;-53
2023/06/14 01:21:21;;;;;;;10.70;7.90;;;;;;;15.09;62.55;100419.77;104774;1264;64075;-52
2023/06/14 01:23:52;;;;;;;11.90;8.40;;;;;;;15.12;62.68;100416.48;104642;1267;61380;-53
2023/06/14 01:26:21;;;;;;;9.80;7.90;;;;;;;15.18;62.72;100411.45;105290;1264;63819;-53
2023/06/14 01:28:52;;;;;;;10.80;8.00;;;;;;;15.24;62.75;100411.73;104606;1262;59760;-53
2023/06/14 01:31:22;;;;;;;10.00;7.40;;;;;;;15.28;62.80;100410.64;104667;1270;59587;-53
2023/06/14 01:33:50;;;;;;;12.30;8.10;;;;;;;15.29;62.67;100410.86;104809;1260;64157;-54
2023/06/14 01:36:21;;;;;;;11.60;8.20;;;;;;;15.30;62.80;100407.23;104692;1263;61428;-55
2023/06/14 01:38:49;;;;;;;14.50;7.70;;;;;;;15.32;62.63;100409.54;104763;1262;62699;-55
2023/06/14 01:41:20;;;;;;;11.30;8.10;;;;;;;15.31;62.64;100412.61;104744;1267;59697;-53
2023/06/14 01:43:48;;;;;;;13.40;6.90;;;;;;;15.31;62.57;100412.77;105069;1263;59854;-54
2023/06/14 01:46:16;;;;;;;10.10;7.30;;;;;;;15.31;62.57;100413.83;104565;1262;64107;-52
2023/06/14 01:48:44;;;;;;;10.50;8.00;;;;;;;15.31;62.64;100416.31;104905;1260;61318;-55
2023/06/14 01:51:11;;;;;;;10.70;7.60;;;;;;;15.30;62.74;100417.46;104827;1267;63892;-56
2023/06/14 01:53:39;;;;;;;11.40;8.20;;;;;;;15.28;62.85;100416.08;104689;1261;59710;-52
2023/06/14 01:56:09;;;;;;;11.80;8.70;;;;;;;15.27;62.93;100415.44;104710;1261;61776;-53
2023/06/14 01:58:37;;;;;;;10.50;8.00;;;;;;;15.28;62.83;100412.19;104967;1266;64203;-53
2023/06/14 02:01:05;;;;;;;12.60;8.30;;;;;;;15.26;62.79;100408.30;104600;1269;60183;-52
2023/06/14 02:03:32;;;;;;;12.90;7.80;;;;;;;15.22;62.54;100402.49;104766;1265;62492;-56
2023/06/14 02:06:00;;;;;;;10.90;8.20;;;;;;;15.20;62.60;100399.87;104948;1260;59760;-54
2023/06/14 02:08:28;;;;;;;10.60;8.20;;;;;;;15.19;62.83;100401.21;105082;1264;59564;-54
2023/06/14 02:10:56;;;;;;;11.40;7.50;;;;;;;15.18;63.17;100406.61;104710;1267;64119;-55
2023/06/14 02:13:23;;;;;;;11.10;8.90;;;;;;;15.18;63.44;100409.80;104940;1267;61381;-53
2023/06/14 02:15:54;;;;;;;12.20;8.50;;;;;;;15.18;63.55;100408.29;104833;1262;65578;-53
2023/06/14 02:18:23;;;;;;;11.40;8.80;;;;;;;15.15;63.49;100409.30;104806;1262;59665;-53
2023/06/14 02:20:50;;;;;;;13.10;8.50;;;;;;;15.13;63.58;100411.77;104799;1267;59756;-53
2023/06/14 02:23:18;;;;;;;13.80;8.20;;;;;;;15.15;63.30;100410.65;104890;1264;64104;-53
2023/06/14 02:25:46;;;;;;;11.20;7.90;;;;;;;15.14;62.94;100408.98;104703;1261;61375;-53
2023/06/14 02:28:13;;;;;;;12.70;7.80;;;;;;;15.09;62.87;100409.84;104702;1262;62556;-53
2023/06/14 02:30:41;;;;;;;13.90;8.40;;;;;;;15.06;63.04;100408.88;104896;1263;59698;-53
2023/06/14 02:33:12;;;;;;;10.90;8.00;;;;;;;15.07;63.18;100406.48;104925;1260;59725;-54
2023/06/14 02:35:40;;;;;;;12.00;8.60;;;;;;;15.09;63.27;100406.30;104759;1262;64124;-53
2023/06/14 02:38:08;;;;;;;15.80;8.30;;;;;;;15.06;63.22;100407.45;104800;1267;60108;-51
2023/06/14 02:40:36;;;;;;;12.20;8.00;;;;;;;15.02;63.30;100409.80;104771;1266;71392;-53
2023/06/14 02:43:04;;;;;;;15.30;8.00;;;;;;;14.99;63.32;100412.16;104756;1262;59831;-52
2023/06/14 02:45:32;;;;;;;10.60;7.90;;;;;;;15.00;63.36;100414.21;104653;1267;59770;-53
2023/06/14 02:47:59;;;;;;;10.20;7.60;;;;;;;15.05;63.50;100414.27;104852;1264;64608;-54
2023/06/14 02:50:28;;;;;;;11.60;8.20;;;;;;;15.14;63.81;100415.73;104869;1260;61826;-53
2023/06/14 02:52:56;;;;;;;12.20;8.00;;;;;;;15.25;63.94;100413.02;105038;1261;62509;-53
2023/06/14 02:55:24;;;;;;;12.80;8.20;;;;;;;15.36;63.69;100412.77;104865;1264;59790;-53
2023/06/14 02:57:53;;;;;;;12.40;8.10;;;;;;;15.46;63.67;100411.70;106208;1263;59625;-53
2023/06/14 03:00:21;;;;;;;12.90;7.70;;;;;;;15.58;63.50;100414.57;104790;1263;64164;-53
2023/06/14 03:02:48;;;;;;;19.20;7.30;;;;;;;15.71;63.24;100419.55;104773;1263;61378;-53
2023/06/14 03:05:16;;;;;;;14.30;8.20;;;;;;;15.83;63.16;100424.93;104952;1266;62481;-55
2023/06/14 03:07:44;;;;;;;10.20;7.20;;;;;;;15.92;62.81;100426.14;105023;1263;60997;-55
2023/06/14 03:10:13;;;;;;;10.20;7.60;;;;;;;15.99;62.80;100430.93;104810;1263;59696;-53
2023/06/14 03:12:42;;;;;;;12.70;7.80;;;;;;;16.05;62.50;100436.65;104946;1263;63407;-53
2023/06/14 03:15:12;;;;;;;12.40;8.30;;;;;;;16.11;62.36;100440.16;104832;1263;61315;-51
2023/06/14 03:17:45;;;;;;;14.60;8.40;;;;;;;16.15;62.26;100438.83;105062;1265;62519;-53
2023/06/14 03:20:15;;;;;;;12.30;7.20;;;;;;;16.21;62.15;100439.08;104850;1266;59791;-53
2023/06/14 03:22:45;;;;;;;12.60;7.60;;;;;;;16.27;61.80;100438.68;105130;1266;59680;-53
2023/06/14 03:25:15;;;;;;;10.80;7.50;;;;;;;16.30;61.76;100443.11;105637;1262;64058;-56
2023/06/14 03:27:43;;;;;;;12.10;8.00;;;;;;;16.31;61.78;100444.24;104744;1263;70161;-53
2023/06/14 03:30:12;;;;;;;12.40;7.30;;;;;;;16.32;62.01;100442.91;104876;1264;62433;-53
2023/06/14 03:32:40;;;;;;;10.50;7.80;;;;;;;16.32;62.12;100444.73;104882;1261;59663;-51
2023/06/14 03:35:08;;;;;;;14.90;8.40;;;;;;;16.35;62.09;100448.64;104834;1262;59897;-52
2023/06/14 03:37:36;;;;;;;12.10;7.70;;;;;;;16.41;62.05;100449.97;104936;1261;64396;-54
2023/06/14 03:40:05;;;;;;;11.60;7.90;;;;;;;16.50;61.89;100447.05;105007;1263;61370;-53
2023/06/14 03:42:35;;;;;;;9.60;7.50;;;;;;;16.61;61.78;100452.55;104851;1263;63847;-55
2023/06/14 03:45:04;;;;;;;10.70;8.30;;;;;;;16.69;61.61;100452.20;104914;1260;59653;-53
2023/06/14 03:47:31;;;;;;;11.60;7.50;;;;;;;16.77;61.53;100454.05;104810;1260;59801;-53
2023/06/14 03:50:00;;;;;;;12.40;8.50;;;;;;;16.83;61.55;100450.08;104925;1262;64683;-54
2023/06/14 03:52:27;;;;;;;9.80;7.00;;;;;;;16.88;61.61;100449.02;104732;1261;61941;-52
2023/06/14 03:54:55;;;;;;;13.80;8.30;;;;;;;16.91;61.60;100443.95;105133;1261;62631;-53
2023/06/14 03:57:43;;;;;;;13.10;8.10;;;;;;;16.98;61.50;100442.30;104940;1264;60549;-53
2023/06/14 04:00:13;;;;;;;13.60;8.00;;;;;;;17.06;61.42;100441.55;104955;1264;60364;-52
2023/06/14 04:02:44;;;;;;;16.20;8.40;;;;;;;17.12;61.51;100440.96;105126;1258;63948;-51
2023/06/14 04:05:11;;;;;;;13.10;9.30;;;;;;;17.16;61.76;100437.95;105452;1258;61464;-52
2023/06/14 04:07:45;;;;;;;15.60;8.00;;;;;;;17.19;61.92;100436.55;105091;1261;63715;-55
2023/06/14 04:10:15;;;;;;;12.30;7.50;;;;;;;17.24;62.13;100432.93;104953;1264;60639;-53
2023/06/14 04:12:42;;;;;;;11.00;8.20;;;;;;;17.30;62.20;100432.64;105968;1262;60540;-53
2023/06/14 04:15:10;;;;;;;12.00;8.50;;;;;;;17.31;62.45;100433.80;105374;1258;63865;-53
2023/06/14 04:17:41;;;;;;;11.40;8.70;;;;;;;17.34;62.45;100432.84;105120;1258;61351;-53
2023/06/14 04:20:10;;;;;;;11.90;8.40;;;;;;;17.36;62.36;100434.73;104974;1262;63951;-54
2023/06/14 04:22:38;;;;;;;15.60;8.10;;;;;;;17.38;62.49;100435.40;105481;1262;60633;-52
2023/06/14 04:25:06;;;;;;;10.80;8.50;;;;;;;17.44;62.75;100436.16;104968;1264;60407;-52
2023/06/14 04:27:36;;;;;;;12.10;8.20;;;;;;;17.52;62.59;100435.43;105016;1258;64972;-53
2023/06/14 04:30:05;;;;;;;11.50;7.60;;;;;;;17.58;62.24;100437.55;105046;1259;61373;-53
2023/06/14 04:32:40;;;;;;;12.00;8.70;;;;;;;17.65;62.05;100440.97;105153;1259;62450;-53
2023/06/14 04:35:10;;;;;;;11.10;8.50;;;;;;;17.67;61.82;100438.58;105064;1258;60695;-53
2023/06/14 04:37:41;;;;;;;11.20;8.20;;;;;;;17.69;61.61;100436.23;105013;1262;60424;-53
2023/06/14 04:40:10;;;;;;;15.30;9.50;;;;;;;17.76;61.42;100434.91;105242;1259;64927;-54
2023/06/14 04:42:40;;;;;;;11.70;9.20;;;;;;;17.83;61.11;100430.48;105310;1259;61590;-54
2023/06/14 04:45:10;;;;;;;14.60;9.10;;;;;;;17.86;61.10;100430.91;104929;1259;63695;-54
2023/06/14 04:47:40;;;;;;;15.60;9.10;;;;;;;17.88;61.16;100425.34;105003;1259;60516;-54
2023/06/14 04:50:08;;;;;;;11.40;8.60;;;;;;;17.92;61.26;100424.33;105201;1264;60445;-55
2023/06/14 04:52:36;;;;;;;11.20;8.30;;;;;;;17.97;61.03;100418.45;105808;1262;64884;-54
2023/06/14 04:55:06;;;;;;;12.10;8.20;;;;;;;18.05;60.72;100414.26;105374;1258;61332;-54
2023/06/14 04:57:34;;;;;;;9.80;6.90;;;;;;;18.10;60.50;100411.94;105100;1265;63818;-54
2023/06/14 05:00:04;;;;;;;12.60;8.10;;;;;;;18.14;60.76;100410.53;105501;1260;60490;-54
2023/06/14 05:02:32;;;;;;;12.30;7.40;;;;;;;18.20;60.81;100415.94;105149;1257;60532;-54
2023/06/14 05:05:01;;;;;;;11.10;6.80;;;;;;;18.24;60.91;100412.96;105149;1262;64929;-52
2023/06/14 05:07:29;;;;;;;12.10;5.70;;;;;;;18.31;60.73;100410.46;105143;1259;61334;-53
2023/06/14 05:09:57;;;;;;;8.40;5.80;;;;;;;18.40;60.54;100408.34;105095;1261;64106;-54
2023/06/14 05:12:26;;;;;;;7.10;5.10;;;;;;;18.50;60.26;100412.98;105110;1259;60498;-54
2023/06/14 05:14:54;;;;;;;11.20;5.80;;;;;;;18.58;59.33;100416.63;105161;1256;60578;-54
2023/06/14 05:17:22;;;;;;;8.40;4.50;;;;;;;18.62;58.91;100415.81;105257;1259;64970;-53
2023/06/14 05:19:50;;;;;;;10.40;5.70;;;;;;;18.66;59.03;100413.23;105107;1263;61391;-53
2023/06/14 05:22:18;;;;;;;11.70;4.70;;;;;;;18.74;58.86;100416.05;104955;1264;63766;-54
2023/06/14 05:24:48;;;;;;;11.40;5.30;;;;;;;18.83;58.87;100416.29;105027;1262;60551;-53
2023/06/14 05:27:16;;;;;;;7.00;4.40;;;;;;;18.91;59.05;100416.95;105029;1262;60536;-52
2023/06/14 05:29:44;;;;;;;9.10;4.60;;;;;;;18.96;58.43;100419.63;105190;1259;64961;-53
2023/06/14 05:32:11;;;;;;;9.30;4.60;;;;;;;18.98;58.20;100420.06;105104;1263;61323;-53
2023/06/14 05:34:39;;;;;;;8.40;4.90;;;;;;;19.05;58.08;100421.98;105099;1263;63835;-53
2023/06/14 05:37:07;;;;;;;8.20;5.10;;;;;;;19.09;57.35;100422.22;105222;1260;60558;-53
2023/06/14 05:39:35;;;;;;;9.50;4.80;;;;;;;19.13;57.42;100420.36;105419;1259;60586;-53
2023/06/14 05:42:03;;;;;;;7.20;4.40;;;;;;;19.23;57.40;100424.20;104989;1259;64933;-53
2023/06/14 05:44:31;;;;;;;6.50;4.70;;;;;;;19.35;56.65;100424.39;104945;1265;61448;-53
2023/06/14 05:46:58;;;;;;;8.20;4.60;;;;;;;19.41;55.85;100425.25;104999;1257;63794;-53
2023/06/14 05:49:25;;;;;;;9.50;4.80;;;;;;;19.46;55.98;100423.41;104981;1258;60573;-54
2023/06/14 05:51:53;;;;;;;7.70;5.10;;;;;;;19.50;56.24;100423.51;104991;1263;60381;-50
2023/06/14 05:54:20;;;;;;;11.40;5.30;;;;;;;19.53;56.11;100425.97;104979;1261;64951;-53
2023/06/14 05:56:48;;;;;;;9.90;5.40;;;;;;;19.56;55.99;100428.20;105089;1258;61369;-52
2023/06/14 05:59:15;;;;;;;9.70;5.50;;;;;;;19.60;56.23;100431.62;104986;1259;63234;-50
2023/06/14 06:01:43;;;;;;;8.40;5.20;;;;;;;19.69;55.72;100430.88;104934;1262;60561;-55
2023/06/14 06:04:11;;;;;;;11.80;5.70;;;;;;;19.79;55.57;100426.40;105042;1259;60548;-50
2023/06/14 06:06:39;;;;;;;11.20;5.70;;;;;;;19.87;56.03;100427.96;104963;1263;64873;-53
2023/06/14 06:09:07;;;;;;;10.90;6.60;;;;;;;19.95;55.69;100423.11;105367;1259;61313;-54
2023/06/14 06:11:34;;;;;;;10.80;4.90;;;;;;;20.01;55.18;100424.81;104814;1259;64269;-53
2023/06/14 06:14:19;;;;;;;7.90;5.50;;;;;;;20.06;55.48;100422.13;105127;1264;61696;-51
2023/06/14 06:16:46;;;;;;;7.30;4.80;;;;;;;20.11;55.43;100425.20;104903;1259;60465;-51
2023/06/14 06:19:14;;;;;;;10.30;5.30;;;;;;;20.14;54.88;100423.42;105028;1259;64920;-53
2023/06/14 06:21:42;;;;;;;12.60;6.20;;;;;;;20.15;54.53;100422.42;105111;1256;61879;-53
2023/06/14 06:24:10;;;;;;;7.60;4.90;;;;;;;20.15;54.41;100419.52;105168;1257;63923;-54
2023/06/14 06:26:39;;;;;;;9.10;5.10;;;;;;;20.19;54.59;100420.20;105016;1259;60511;-53
2023/06/14 06:29:07;;;;;;;9.80;4.20;;;;;;;20.27;54.83;100416.19;104913;1263;60481;-53
2023/06/14 06:31:34;;;;;;;11.60;4.80;;;;;;;20.37;55.18;100412.00;105201;1261;64952;-54
2023/06/14 06:34:02;;;;;;;13.00;5.00;;;;;;;20.46;55.01;100410.19;105030;1263;60567;-54
2023/06/14 06:36:30;;;;;;;9.00;4.70;;;;;;;20.53;54.50;100410.52;105015;1262;64154;-53
2023/06/14 06:38:58;;;;;;;8.20;4.50;;;;;;;20.60;54.07;100408.83;104990;1264;60444;-54
2023/06/14 06:41:26;;;;;;;10.90;5.20;;;;;;;20.64;53.79;100409.61;105049;1262;60552;-53
2023/06/14 06:43:54;;;;;;;10.80;6.00;;;;;;;20.68;53.77;100407.67;105012;1259;63656;-52
2023/06/14 06:46:28;;;;;;;9.30;5.80;;;;;;;20.71;53.67;100407.67;105048;1259;61369;-53
2023/06/14 06:48:55;;;;;;;9.50;6.50;;;;;;;20.78;53.55;100405.27;104928;1263;64221;-52
2023/06/14 06:51:23;;;;;;;11.50;7.20;;;;;;;20.81;53.01;100406.10;104987;1258;60539;-52
2023/06/14 06:53:54;;;;;;;9.80;6.70;;;;;;;20.83;52.92;100407.84;105101;1259;60437;-54
2023/06/14 06:56:23;;;;;;;14.90;6.50;;;;;;;20.88;53.14;100403.52;105011;1262;64918;-52
2023/06/14 06:58:50;;;;;;;11.10;6.10;;;;;;;20.97;52.58;100402.70;105420;1262;60403;-53
2023/06/14 07:01:21;;;;;;;11.30;6.20;;;;;;;21.08;52.49;100397.23;104871;1259;62486;-54
2023/06/14 07:03:49;;;;;;;9.60;6.60;;;;;;;21.19;52.01;100396.45;105213;1260;60577;-56
2023/06/14 07:06:18;;;;;;;11.60;7.10;;;;;;;21.27;51.72;100397.06;105066;1264;60545;-52
2023/06/14 07:08:48;;;;;;;9.20;5.90;;;;;;;21.34;51.94;100398.80;104982;1262;65027;-53
2023/06/14 07:11:15;;;;;;;8.50;6.40;;;;;;;21.43;51.84;100396.86;105086;1259;61354;-52
2023/06/14 07:13:43;;;;;;;12.30;5.90;;;;;;;21.48;51.77;100393.48;104919;1259;63872;-53
2023/06/14 07:16:10;;;;;;;7.80;5.10;;;;;;;21.53;51.59;100391.30;105015;1262;60780;-53
2023/06/14 07:18:38;;;;;;;11.80;6.20;;;;;;;21.57;51.84;100392.60;105076;1259;60616;-53
2023/06/14 07:21:05;;;;;;;8.50;5.60;;;;;;;21.60;51.81;100391.59;105059;1258;65032;-54
2023/06/14 07:23:33;;;;;;;6.90;4.80;;;;;;;21.65;51.84;100393.48;105030;1260;60464;-54
2023/06/14 07:26:00;;;;;;;10.40;5.60;;;;;;;21.70;51.70;100391.26;105154;1259;63777;-53
2023/06/14 07:28:28;;;;;;;8.40;5.30;;;;;;;21.74;51.40;100392.75;105268;1263;60480;-54
2023/06/14 07:30:56;;;;;;;8.10;5.80;;;;;;;21.77;51.73;100393.02;104854;1258;60469;-56
2023/06/14 07:33:23;;;;;;;8.40;5.30;;;;;;;21.81;51.50;100394.54;105014;1259;63666;-57
2023/06/14 07:35:52;;;;;;;7.50;5.30;;;;;;;21.82;51.14;100396.21;105048;1259;61554;-52
2023/06/14 07:38:20;;;;;;;9.70;5.70;;;;;;;21.82;50.95;100397.05;104993;1259;62592;-55
2023/06/14 07:40:48;;;;;;;8.40;5.70;;;;;;;21.84;51.10;100397.34;105162;1261;60552;-54
2023/06/14 07:43:15;;;;;;;8.50;5.40;;;;;;;21.89;51.06;100398.13;105016;1259;60489;-51
2023/06/14 07:45:43;;;;;;;10.80;5.00;;;;;;;21.93;51.05;100396.16;104957;1259;64894;-50
2023/06/14 07:48:29;;;;;;;6.50;4.80;;;;;;;21.99;50.69;100394.77;105027;1259;61942;-52
2023/06/14 07:50:56;;;;;;;9.30;5.40;;;;;;;22.04;49.89;100397.10;105307;1263;63672;-51
2023/06/14 07:53:25;;;;;;;7.60;4.40;;;;;;;22.07;49.94;100394.71;105085;1258;60551;-54
2023/06/14 07:55:53;;;;;;;9.40;5.40;;;;;;;22.13;50.19;100394.21;105182;1258;60926;-53
2023/06/14 07:58:20;;;;;;;8.80;5.00;;;;;;;22.20;50.39;100393.43;104939;1257;64945;-52
2023/06/14 08:00:49;;;;;;;7.70;4.40;;;;;;;22.26;49.82;100389.96;105094;1262;61429;-54
2023/06/14 08:03:16;;;;;;;7.60;4.70;;;;;;;22.33;50.24;100391.78;104945;1259;64682;-54
2023/06/14 08:05:44;;;;;;;7.00;4.30;;;;;;;22.42;49.91;100394.91;105185;1257;60535;-53
2023/06/14 08:08:12;;;;;;;8.70;4.50;;;;;;;22.49;50.16;100392.72;105174;1261;60436;-54
2023/06/14 08:10:40;;;;;;;6.70;4.60;;;;;;;22.56;49.56;100392.04;105056;1259;64861;-54
2023/06/14 08:13:09;;;;;;;10.40;4.20;;;;;;;22.59;49.16;100392.27;105021;1259;61439;-52
2023/06/14 08:15:37;;;;;;;11.80;4.20;;;;;;;22.66;49.42;100388.77;105175;1262;63692;-53
2023/06/14 08:18:04;;;;;;;9.00;4.60;;;;;;;22.74;49.14;100393.08;104950;1259;60536;-50
2023/06/14 08:20:34;;;;;;;9.50;5.20;;;;;;;22.81;49.11;100386.90;104919;1259;60584;-50
2023/06/14 08:23:03;;;;;;;10.50;4.80;;;;;;;22.87;49.14;100379.35;105003;1257;63629;-51
2023/06/14 08:25:31;;;;;;;8.70;4.80;;;;;;;22.93;48.95;100380.93;105380;1259;61373;-53
2023/06/14 08:27:59;;;;;;;10.30;4.40;;;;;;;22.97;48.60;100378.70;104966;1264;62618;-53
2023/06/14 08:30:27;;;;;;;10.90;4.30;;;;;;;23.05;48.89;100378.08;105260;1264;60573;-52
2023/06/14 08:32:56;;;;;;;7.40;4.30;;;;;;;23.13;48.94;100378.67;105037;1258;60447;-53
2023/06/14 08:35:42;;;;;;;7.60;3.90;;;;;;;23.22;48.89;100378.71;105062;1263;64941;-54
2023/06/14 08:38:10;;;;;;;7.80;4.10;;;;;;;23.28;48.65;100379.55;105082;1263;60449;-47
2023/06/14 08:40:39;;;;;;;7.60;4.50;;;;;;;23.36;49.06;100383.59;105030;1263;64457;-49
2023/06/14 08:43:07;;;;;;;10.30;4.20;;;;;;;23.44;48.87;100383.91;105534;1263;60433;-48
2023/06/14 08:45:35;;;;;;;7.10;4.30;;;;;;;23.53;48.92;100385.40;105200;1263;60380;-55
2023/06/14 08:48:02;;;;;;;10.00;5.30;;;;;;;23.62;48.31;100382.50;105025;1262;64953;-54
2023/06/14 08:50:30;;;;;;;6.20;4.30;;;;;;;23.69;47.57;100380.79;104908;1261;60535;-53
2023/06/14 08:53:01;;;;;;;8.10;4.40;;;;;;;23.76;47.89;100378.80;104925;1263;63185;-54
2023/06/14 08:55:30;;;;;;;6.40;4.30;;;;;;;23.83;47.59;100375.94;105125;1259;60446;-55
2023/06/14 08:58:03;;;;;;;7.90;4.20;;;;;;;23.91;48.07;100377.59;105001;1264;60366;-55
2023/06/14 09:00:32;;;;;;;6.50;3.70;;;;;;;24.03;48.20;100372.89;105204;1257;64971;-55
2023/06/14 09:03:01;;;;;;;5.60;3.50;;;;;;;24.16;47.67;100373.67;105268;1259;61585;-54
2023/06/14 09:05:28;;;;;;;8.30;3.70;;;;;;;24.22;47.07;100376.41;105063;1257;63699;-55
2023/06/14 09:08:00;;;;;;;7.70;3.60;;;;;;;24.28;46.80;100374.23;104955;1264;60628;-56
2023/06/14 09:10:37;;;;;;;7.20;4.00;;;;;;;24.38;46.66;100368.77;104927;1259;60568;-55
2023/06/14 09:13:06;;;;;;;7.40;3.80;;;;;;;24.46;47.05;100367.33;105112;1259;71739;-61
2023/06/14 09:15:35;;;;;;;11.60;3.00;;;;;;;24.54;46.55;100370.89;105058;1263;61692;-61
2023/06/14 09:18:03;;;;;;;9.00;3.70;;;;;;;24.66;45.96;100372.95;105228;1259;63835;-60
2023/06/14 09:20:30;;;;;;;7.90;3.50;;;;;;;24.80;45.86;100371.55;105245;1259;60636;-59
2023/06/14 09:22:58;;;;;;;6.60;2.90;;;;;;;24.93;45.42;100364.59;105034;1263;60339;-60
2023/06/14 09:25:27;;;;;;;7.70;3.70;;;;;;;25.04;45.59;100368.70;105124;1259;63786;-60
2023/06/14 09:28:08;;;;;;;9.20;3.30;;;;;;;25.17;46.06;100365.93;104916;1259;61604;-58
2023/06/14 09:30:39;;;;;;;5.60;3.20;;;;;;;25.32;46.27;100364.33;105044;1262;63717;-59
2023/06/14 09:33:06;;;;;;;7.50;4.00;;;;;;;25.49;46.39;100363.04;105032;1263;60566;-67
2023/06/14 09:35:34;;;;;;;6.80;4.10;;;;;;;25.64;45.75;100360.48;105214;1262;60536;-66
2023/06/14 09:38:02;;;;;;;10.30;3.40;;;;;;;25.77;45.12;100357.90;105006;1263;64924;-66
2023/06/14 09:40:33;;;;;;;7.60;3.70;;;;;;;25.89;44.71;100355.58;104876;1266;69579;-67
2023/06/14 09:43:01;;;;;;;7.90;4.10;;;;;;;26.03;44.43;100361.70;104947;1260;62502;-67
2023/06/14 09:45:31;;;;;;;7.50;4.20;;;;;;;26.16;44.17;100364.66;105126;1262;60589;-68
2023/06/14 09:47:59;;;;;;;7.90;4.20;;;;;;;26.25;44.07;100364.16;105019;1257;60516;-66
2023/06/14 09:50:34;;;;;;;6.00;3.40;;;;;;;26.32;43.53;100363.91;104923;1258;63741;-67
2023/06/14 09:53:06;;;;;;;4.80;2.90;;;;;;;26.33;43.04;100367.85;105265;1262;60545;-66
2023/06/14 09:55:36;;;;;;;6.90;3.50;;;;;;;26.37;43.24;100368.96;105191;1260;62721;-68
2023/06/14 09:58:05;;;;;;;6.50;3.20;;;;;;;26.39;43.30;100363.99;104872;1259;61371;-66
2023/06/14 10:00:34;;;;;;;6.90;3.50;;;;;;;26.41;42.90;100360.40;105688;1259;60614;-64
2023/06/14 10:03:14;;;;;;;8.40;4.00;;;;;;;26.42;42.51;100360.36;105065;1259;63635;-64
2023/06/14 10:05:45;;;;;;;7.70;3.60;;;;;;;26.38;41.79;100357.70;105020;1264;69191;-63
2023/06/14 10:08:18;;;;;;;7.00;3.40;;;;;;;26.31;42.02;100359.95;105532;1262;63740;-65
2023/06/14 10:10:46;;;;;;;7.60;3.80;;;;;;;26.29;42.45;100362.75;105054;1264;60462;-64
2023/06/14 10:13:13;;;;;;;7.00;4.00;;;;;;;26.29;42.25;100361.50;104997;1257;60458;-67
2023/06/14 10:15:51;;;;;;;7.60;4.60;;;;;;;26.33;42.44;100367.60;104937;1264;64924;-68
2023/06/14 10:18:31;;;;;;;10.70;3.90;;;;;;;26.34;42.25;100366.64;105175;1258;61355;-68
2023/06/14 10:21:22;;;;;;;6.00;3.70;;;;;;;26.29;42.28;100366.13;105118;1262;64398;-64
2023/06/14 10:23:50;;;;;;;9.10;4.20;;;;;;;26.27;42.53;100360.83;104853;1261;60577;-63
2023/06/14 10:26:22;;;;;;;9.40;4.60;;;;;;;26.26;43.22;100360.30;104957;1259;60465;-64
2023/06/14 10:29:07;;;;;;;8.50;4.10;;;;;;;26.30;43.26;100359.93;105038;1264;64913;-65
2023/06/14 10:31:46;;;;;;;8.30;3.70;;;;;;;26.35;43.19;100354.99;105289;1263;60467;-63
2023/06/14 10:34:23;;;;;;;6.90;3.90;;;;;;;26.42;43.05;100355.45;104821;1263;64053;-66
2023/06/14 10:37:05;;;;;;;7.40;4.10;;;;;;;26.45;43.01;100354.65;105047;1260;61174;-65
2023/06/14 10:39:39;;;;;;;8.20;4.20;;;;;;;26.47;42.72;100355.22;104974;1258;61136;-65
2023/06/14 10:42:06;;;;;;;6.90;3.70;;;;;;;26.50;42.49;100355.41;105288;1263;63629;-65
2023/06/14 10:44:40;;;;;;;7.70;4.60;;;;;;;26.55;42.25;100355.47;105378;1259;61496;-66
2023/06/14 10:47:29;;;;;;;7.40;4.60;;;;;;;26.58;42.80;100357.01;105161;1260;63784;-65
2023/06/14 10:50:08;;;;;;;6.80;4.20;;;;;;;26.67;43.22;100359.48;104985;1265;60747;-64
2023/06/14 10:52:38;;;;;;;7.50;3.90;;;;;;;26.75;42.68;100360.24;104915;1263;60518;-64
2023/06/14 10:55:21;;;;;;;7.80;4.30;;;;;;;26.74;42.29;100362.38;105115;1259;65427;-64
2023/06/14 10:57:58;;;;;;;8.10;4.30;;;;;;;26.65;42.89;100360.39;105266;1263;61484;-64
2023/06/14 11:00:28;;;;;;;8.10;4.10;;;;;;;26.60;43.08;100357.19;105035;1263;63735;-64
2023/06/14 11:03:08;;;;;;;9.20;4.30;;;;;;;26.57;43.31;100358.11;105756;1260;60451;-64
2023/06/14 11:05:50;;;;;;;6.50;3.70;;;;;;;26.55;43.61;100359.84;104985;1271;60503;-65
2023/06/14 11:08:28;;;;;;;8.10;3.80;;;;;;;26.60;43.72;100357.27;104949;1263;64933;-65
2023/06/14 11:10:59;;;;;;;5.90;3.70;;;;;;;26.69;43.10;100356.84;105099;1263;62014;-65
2023/06/14 11:13:27;;;;;;;8.40;4.00;;;;;;;26.76;42.91;100352.34;105632;1262;63761;-66
2023/06/14 11:15:58;;;;;;;6.10;3.80;;;;;;;26.87;42.40;100348.94;105149;1263;59582;-66
2023/06/14 11:18:27;;;;;;;6.40;4.30;;;;;;;27.00;41.90;100348.22;104829;1266;60382;-66
2023/06/14 11:20:55;;;;;;;12.60;3.80;;;;;;;27.18;41.98;100343.64;105226;1264;64866;-66
2023/06/14 11:23:23;;;;;;;8.80;3.90;;;;;;;27.36;41.28;100343.81;104913;1260;61323;-65